Time;durP1;ratioP1;P1;durP2;ratioP2;P2;SDS_P1;SDS_P2;PMS_P1;PMS_P2;Temp;Humidity;BMP_temperature;BMP_pressure;BME280_temperature;BME280_humidity;BME280_pressure;Samples;Min_cycle;Max_cycle;Signal;HPM_P1;HPM_P2
2022/02/25 00:00:07;;;;;;;15.82;1.90;;;;;;;;;;1685046;29;21515;-62
2022/02/25 00:00:58;;;;;;;7.60;2.17;;;;;;;;;;1684870;29;21698;-62
2022/02/25 00:01:50;;;;;;;8.15;2.10;;;;;;;;;;1687335;29;21595;-61
2022/02/25 00:02:43;;;;;;;3.58;1.60;;;;;;;;;;1689483;29;21506;-62
2022/02/25 00:03:35;;;;;;;3.53;1.92;;;;;;;;;;1684959;29;21700;-61
2022/02/25 00:04:26;;;;;;;2.85;1.60;;;;;;;;;;1688902;29;22140;-61
2022/02/25 00:05:18;;;;;;;9.55;1.88;;;;;;;;;;1689443;29;21600;-62
2022/02/25 00:06:10;;;;;;;3.05;2.00;;;;;;;;;;1685496;29;21652;-61
2022/02/25 00:07:02;;;;;;;8.20;1.80;;;;;;;;;;1687946;29;21765;-61
2022/02/25 00:07:54;;;;;;;4.70;1.50;;;;;;;;;;1689424;29;21628;-61
2022/02/25 00:08:46;;;;;;;3.30;2.00;;;;;;;;;;1690625;29;21716;-61
2022/02/25 00:09:37;;;;;;;2.78;2.10;;;;;;;;;;1680563;29;21962;-61
2022/02/25 00:10:29;;;;;;;2.22;1.65;;;;;;;;;;1675109;29;21538;-61
2022/02/25 00:11:20;;;;;;;4.95;1.95;;;;;;;;;;1683917;29;21524;-62
2022/02/25 00:12:13;;;;;;;2.75;1.80;;;;;;;;;;1683785;29;21924;-61
2022/02/25 00:13:04;;;;;;;5.20;2.25;;;;;;;;;;1687093;29;21581;-62
2022/02/25 00:13:56;;;;;;;2.30;1.80;;;;;;;;;;1689585;29;21661;-61
2022/02/25 00:14:49;;;;;;;2.67;1.80;;;;;;;;;;1687143;29;21539;-61
2022/02/25 00:15:41;;;;;;;5.47;1.73;;;;;;;;;;1686770;29;21593;-61
2022/02/25 00:16:32;;;;;;;2.40;1.83;;;;;;;;;;1689571;29;21580;-61
2022/02/25 00:17:24;;;;;;;2.60;1.63;;;;;;;;;;1690642;29;21856;-62
2022/02/25 00:18:17;;;;;;;6.32;1.80;;;;;;;;;;1686518;29;21574;-62
2022/02/25 00:19:09;;;;;;;1.98;1.75;;;;;;;;;;1684117;29;21563;-61
2022/02/25 00:20:00;;;;;;;2.63;2.05;;;;;;;;;;1683930;29;22283;-62
2022/02/25 00:20:52;;;;;;;2.60;1.88;;;;;;;;;;1685022;29;22087;-61
2022/02/25 00:21:44;;;;;;;3.90;1.95;;;;;;;;;;1684522;29;21544;-61
2022/02/25 00:22:36;;;;;;;2.00;1.73;;;;;;;;;;1683680;29;21569;-61
2022/02/25 00:23:27;;;;;;;2.35;1.83;;;;;;;;;;1682619;29;21518;-61
2022/02/25 00:24:19;;;;;;;6.53;1.75;;;;;;;;;;1687224;29;21564;-61
2022/02/25 00:25:11;;;;;;;1.90;1.60;;;;;;;;;;1689474;29;21599;-61
2022/02/25 00:26:04;;;;;;;2.88;1.92;;;;;;;;;;1690527;29;21508;-61
2022/02/25 00:26:55;;;;;;;2.40;2.05;;;;;;;;;;1690406;29;21574;-62
2022/02/25 00:27:47;;;;;;;2.15;1.85;;;;;;;;;;1684753;29;21539;-61
2022/02/25 00:28:38;;;;;;;2.50;1.40;;;;;;;;;;1688937;29;21591;-61
2022/02/25 00:29:30;;;;;;;2.60;2.05;;;;;;;;;;1689456;29;21541;-61
2022/02/25 00:30:22;;;;;;;4.15;2.08;;;;;;;;;;1690325;29;21583;-61
2022/02/25 00:31:14;;;;;;;1.90;1.70;;;;;;;;;;1685996;29;21581;-62
2022/02/25 00:32:07;;;;;;;2.42;1.80;;;;;;;;;;1685619;29;21965;-61
2022/02/25 00:32:59;;;;;;;2.63;1.70;;;;;;;;;;1690155;29;21583;-61
2022/02/25 00:33:51;;;;;;;5.03;1.92;;;;;;;;;;1690073;29;21523;-61
2022/02/25 00:34:44;;;;;;;4.18;1.88;;;;;;;;;;1690412;29;21917;-61
2022/02/25 00:35:36;;;;;;;2.00;1.55;;;;;;;;;;1690320;29;21620;-61
2022/02/25 00:36:27;;;;;;;2.55;1.45;;;;;;;;;;1684876;29;21568;-61
2022/02/25 00:37:19;;;;;;;6.35;1.60;;;;;;;;;;1688660;29;21621;-61
2022/02/25 00:38:11;;;;;;;2.20;1.67;;;;;;;;;;1689309;29;21829;-61
2022/02/25 00:39:04;;;;;;;2.50;1.73;;;;;;;;;;1685121;29;21504;-61
2022/02/25 00:39:56;;;;;;;1.85;1.67;;;;;;;;;;1688554;29;21628;-61
2022/02/25 00:40:48;;;;;;;3.55;1.98;;;;;;;;;;1687163;29;22050;-62
2022/02/25 00:41:39;;;;;;;2.20;2.00;;;;;;;;;;1685486;29;21637;-62
2022/02/25 00:42:32;;;;;;;2.40;1.60;;;;;;;;;;1687820;29;21718;-61
2022/02/25 00:43:23;;;;;;;2.35;1.88;;;;;;;;;;1689384;29;21632;-61
2022/02/25 00:44:16;;;;;;;4.18;1.77;;;;;;;;;;1689526;29;21647;-62
2022/02/25 00:45:08;;;;;;;6.28;1.88;;;;;;;;;;1686094;29;21570;-61
2022/02/25 00:46:01;;;;;;;1.80;1.50;;;;;;;;;;1683827;29;22246;-61
2022/02/25 00:46:52;;;;;;;3.25;1.63;;;;;;;;;;1683675;29;21591;-61
2022/02/25 00:47:45;;;;;;;3.15;2.05;;;;;;;;;;1683838;29;21557;-61
2022/02/25 00:48:36;;;;;;;2.38;2.17;;;;;;;;;;1684041;29;21624;-61
2022/02/25 00:49:30;;;;;;;3.08;1.98;;;;;;;;;;1683489;29;21652;-61
2022/02/25 00:50:22;;;;;;;4.53;1.90;;;;;;;;;;1690420;29;21523;-61
2022/02/25 00:51:13;;;;;;;2.13;1.90;;;;;;;;;;1685826;29;21550;-62
2022/02/25 00:52:06;;;;;;;4.72;1.90;;;;;;;;;;1685402;29;22033;-62
2022/02/25 00:52:57;;;;;;;3.72;1.67;;;;;;;;;;1690024;29;21497;-62
2022/02/25 00:53:50;;;;;;;2.50;1.92;;;;;;;;;;1688190;29;21611;-62
2022/02/25 00:54:44;;;;;;;5.78;1.73;;;;;;;;;;1685602;29;22123;-61
2022/02/25 00:55:36;;;;;;;2.35;1.83;;;;;;;;;;1683875;29;21638;-62
2022/02/25 00:56:27;;;;;;;1.40;1.30;;;;;;;;;;1683853;29;21598;-62
2022/02/25 00:57:19;;;;;;;2.20;1.92;;;;;;;;;;1685342;29;21599;-62
2022/02/25 00:58:10;;;;;;;2.35;1.95;;;;;;;;;;1677241;29;21540;-61
2022/02/25 00:59:03;;;;;;;1.67;1.55;;;;;;;;;;1683155;29;21619;-61
2022/02/25 00:59:55;;;;;;;2.08;1.77;;;;;;;;;;1683726;29;22041;-62
2022/02/25 01:00:47;;;;;;;1.80;1.45;;;;;;;;;;1684769;29;21601;-62
2022/02/25 01:01:38;;;;;;;2.03;1.83;;;;;;;;;;1679204;29;22096;-61
2022/02/25 01:02:30;;;;;;;1.58;1.35;;;;;;;;;;1680645;29;21498;-61
2022/02/25 01:03:22;;;;;;;2.42;1.85;;;;;;;;;;1680322;29;21931;-62
2022/02/25 01:04:14;;;;;;;2.45;2.10;;;;;;;;;;1689263;29;21569;-61
2022/02/25 01:05:09;;;;;;;2.15;1.73;;;;;;;;;;1690182;29;21558;-62
2022/02/25 01:06:01;;;;;;;2.00;1.80;;;;;;;;;;1685173;29;22024;-62
2022/02/25 01:06:52;;;;;;;1.70;1.60;;;;;;;;;;1689036;29;21561;-62
2022/02/25 01:07:46;;;;;;;1.77;1.67;;;;;;;;;;1689054;29;21652;-62
2022/02/25 01:08:37;;;;;;;1.73;1.63;;;;;;;;;;1690398;29;21567;-61
2022/02/25 01:09:29;;;;;;;2.55;1.90;;;;;;;;;;1684707;29;21559;-62
2022/02/25 01:10:20;;;;;;;1.48;1.38;;;;;;;;;;1688594;29;21536;-61
2022/02/25 01:11:13;;;;;;;2.30;2.10;;;;;;;;;;1685252;29;21677;-62
2022/02/25 01:12:07;;;;;;;1.90;1.80;;;;;;;;;;1688067;29;22018;-62
2022/02/25 01:13:00;;;;;;;1.88;1.70;;;;;;;;;;1689098;29;21523;-61
2022/02/25 01:13:51;;;;;;;4.05;2.17;;;;;;;;;;1684736;29;21523;-61
2022/02/25 01:14:43;;;;;;;6.95;1.88;;;;;;;;;;1688669;29;22014;-61
2022/02/25 01:15:34;;;;;;;2.38;1.90;;;;;;;;;;1689382;29;21631;-61
2022/02/25 01:16:26;;;;;;;2.20;1.83;;;;;;;;;;1690164;29;21600;-61
2022/02/25 01:17:18;;;;;;;1.80;1.60;;;;;;;;;;1688506;29;21560;-62
2022/02/25 01:18:10;;;;;;;2.00;1.85;;;;;;;;;;1685139;29;21524;-61
2022/02/25 01:19:01;;;;;;;1.83;1.70;;;;;;;;;;1670352;29;21518;-61
2022/02/25 01:19:53;;;;;;;2.33;1.70;;;;;;;;;;1676054;29;21505;-62
2022/02/25 01:20:46;;;;;;;3.58;1.42;;;;;;;;;;1681919;29;22143;-61
2022/02/25 01:21:38;;;;;;;1.85;1.75;;;;;;;;;;1687298;29;21624;-61
2022/02/25 01:22:30;;;;;;;2.00;1.80;;;;;;;;;;1690390;29;21563;-61
2022/02/25 01:23:22;;;;;;;2.13;1.73;;;;;;;;;;1689064;29;21510;-61
2022/02/25 01:24:13;;;;;;;2.72;1.90;;;;;;;;;;1686325;29;22002;-62
2022/02/25 01:25:07;;;;;;;2.17;1.63;;;;;;;;;;1684887;29;21661;-61
2022/02/25 01:25:58;;;;;;;2.72;1.55;;;;;;;;;;1684453;29;21596;-61
2022/02/25 01:26:50;;;;;;;1.85;1.67;;;;;;;;;;1685608;29;21575;-61
2022/02/25 01:27:42;;;;;;;2.63;1.90;;;;;;;;;;1678237;29;21521;-61
2022/02/25 01:28:34;;;;;;;2.22;1.70;;;;;;;;;;1684114;29;21945;-61
2022/02/25 01:29:26;;;;;;;1.65;1.50;;;;;;;;;;1685705;29;21713;-61
2022/02/25 01:30:18;;;;;;;1.85;1.73;;;;;;;;;;1691381;29;21557;-61
2022/02/25 01:31:09;;;;;;;2.42;1.55;;;;;;;;;;1686096;29;21622;-61
2022/02/25 01:32:02;;;;;;;2.30;1.73;;;;;;;;;;1685622;29;21581;-61
2022/02/25 01:32:53;;;;;;;2.85;1.77;;;;;;;;;;1690633;29;22130;-62
2022/02/25 01:33:46;;;;;;;2.38;2.17;;;;;;;;;;1690270;29;21686;-62
2022/02/25 01:34:37;;;;;;;1.65;1.55;;;;;;;;;;1691476;29;21534;-61
2022/02/25 01:35:29;;;;;;;3.55;1.83;;;;;;;;;;1689136;29;21679;-61
2022/02/25 01:36:22;;;;;;;1.70;1.58;;;;;;;;;;1685747;29;22184;-62
2022/02/25 01:37:14;;;;;;;2.60;1.67;;;;;;;;;;1684661;29;21625;-61
2022/02/25 01:38:05;;;;;;;2.78;2.15;;;;;;;;;;1678269;29;21624;-62
2022/02/25 01:39:02;;;;;;;2.17;1.73;;;;;;;;;;1683310;29;21989;-61
2022/02/25 01:39:54;;;;;;;2.05;1.52;;;;;;;;;;1685480;29;21649;-61
2022/02/25 01:40:49;;;;;;;6.25;2.00;;;;;;;;;;1688247;29;21648;-61
2022/02/25 01:41:40;;;;;;;2.83;1.90;;;;;;;;;;1685844;29;21539;-61
2022/02/25 01:42:45;;;;;;;6.63;1.92;;;;;;;;;;1688645;29;21718;-62
2022/02/25 01:43:36;;;;;;;12.32;2.15;;;;;;;;;;1690326;29;22259;-61
2022/02/25 01:44:30;;;;;;;7.45;2.00;;;;;;;;;;1686813;29;21567;-61
2022/02/25 01:45:22;;;;;;;5.57;1.70;;;;;;;;;;1684598;29;21587;-61
2022/02/25 01:46:14;;;;;;;4.80;1.92;;;;;;;;;;1684623;29;21571;-61
2022/02/25 01:47:07;;;;;;;2.30;2.03;;;;;;;;;;1685600;29;21565;-62
2022/02/25 01:47:59;;;;;;;3.00;1.70;;;;;;;;;;1689285;29;21559;-62
2022/02/25 01:48:50;;;;;;;2.20;1.70;;;;;;;;;;1690255;29;21609;-61
2022/02/25 01:49:43;;;;;;;2.40;2.00;;;;;;;;;;1687732;29;21559;-61
2022/02/25 01:50:35;;;;;;;5.03;1.95;;;;;;;;;;1685384;29;21526;-62
2022/02/25 01:51:29;;;;;;;4.78;2.30;;;;;;;;;;1686283;29;21702;-61
2022/02/25 01:52:20;;;;;;;6.28;2.17;;;;;;;;;;1678289;29;21559;-63
2022/02/25 01:53:13;;;;;;;4.93;1.70;;;;;;;;;;1684057;29;21676;-62
2022/02/25 01:54:05;;;;;;;2.15;1.60;;;;;;;;;;1685647;29;21592;-61
2022/02/25 01:54:57;;;;;;;2.15;1.95;;;;;;;;;;1689504;29;21715;-61
2022/02/25 01:55:48;;;;;;;6.50;1.80;;;;;;;;;;1690193;29;21585;-61
2022/02/25 01:56:42;;;;;;;5.28;1.70;;;;;;;;;;1687446;29;21649;-61
2022/02/25 01:57:34;;;;;;;4.93;1.77;;;;;;;;;;1684638;29;21490;-61
2022/02/25 01:58:28;;;;;;;5.03;1.70;;;;;;;;;;1676775;29;21631;-61
2022/02/25 01:59:19;;;;;;;1.92;1.52;;;;;;;;;;1675734;29;21541;-61
2022/02/25 02:00:12;;;;;;;2.40;1.85;;;;;;;;;;1680446;29;21615;-61
2022/02/25 02:01:04;;;;;;;2.58;1.55;;;;;;;;;;1684536;29;21576;-61
2022/02/25 02:01:56;;;;;;;4.50;1.70;;;;;;;;;;1687904;29;22056;-61
2022/02/25 02:02:49;;;;;;;7.10;1.95;;;;;;;;;;1688671;29;21917;-61
2022/02/25 02:03:40;;;;;;;4.00;1.83;;;;;;;;;;1685285;29;21569;-61
2022/02/25 02:04:33;;;;;;;3.95;1.65;;;;;;;;;;1691035;29;21563;-61
2022/02/25 02:05:25;;;;;;;2.75;2.10;;;;;;;;;;1689050;29;21556;-61
2022/02/25 02:06:17;;;;;;;2.65;2.13;;;;;;;;;;1685533;29;22046;-61
2022/02/25 02:07:10;;;;;;;2.13;1.92;;;;;;;;;;1690426;29;22165;-62
2022/02/25 02:08:02;;;;;;;2.40;1.80;;;;;;;;;;1690091;29;21560;-61
2022/02/25 02:08:54;;;;;;;4.55;1.50;;;;;;;;;;1681871;29;21524;-61
2022/02/25 02:09:46;;;;;;;2.00;1.67;;;;;;;;;;1684076;29;21522;-61
2022/02/25 02:10:38;;;;;;;3.83;1.70;;;;;;;;;;1683812;29;21578;-61
2022/02/25 02:11:33;;;;;;;3.13;1.80;;;;;;;;;;1686603;29;21556;-61
2022/02/25 02:12:24;;;;;;;6.45;1.90;;;;;;;;;;1684801;29;21517;-61
2022/02/25 02:13:16;;;;;;;3.63;2.00;;;;;;;;;;1687784;29;21538;-61
2022/02/25 02:14:12;;;;;;;3.13;2.22;;;;;;;;;;1690201;29;21567;-62
2022/02/25 02:15:06;;;;;;;2.60;2.03;;;;;;;;;;1691223;29;21542;-61
2022/02/25 02:15:57;;;;;;;3.72;1.52;;;;;;;;;;1690203;29;22116;-61
2022/02/25 02:16:52;;;;;;;3.15;1.90;;;;;;;;;;1686686;29;21569;-61
2022/02/25 02:17:43;;;;;;;11.40;1.88;;;;;;;;;;1684597;29;21619;-61
2022/02/25 02:18:36;;;;;;;2.25;1.55;;;;;;;;;;1680820;29;21645;-61
2022/02/25 02:19:29;;;;;;;4.60;1.88;;;;;;;;;;1684076;29;21565;-61
2022/02/25 02:20:21;;;;;;;2.38;2.00;;;;;;;;;;1684589;29;21526;-61
2022/02/25 02:21:13;;;;;;;1.95;1.85;;;;;;;;;;1685425;29;21565;-61
2022/02/25 02:22:07;;;;;;;2.03;1.80;;;;;;;;;;1689190;29;22049;-62
2022/02/25 02:23:00;;;;;;;2.17;1.80;;;;;;;;;;1686733;29;22168;-61
2022/02/25 02:23:52;;;;;;;1.75;1.65;;;;;;;;;;1678146;29;21594;-61
2022/02/25 02:24:44;;;;;;;2.45;1.88;;;;;;;;;;1680775;29;21532;-61
2022/02/25 02:25:36;;;;;;;3.50;1.77;;;;;;;;;;1684503;29;21898;-61
2022/02/25 02:26:29;;;;;;;2.30;2.00;;;;;;;;;;1684031;29;21513;-61
2022/02/25 02:27:21;;;;;;;5.68;1.73;;;;;;;;;;1684857;29;21708;-61
2022/02/25 02:28:19;;;;;;;2.72;1.95;;;;;;;;;;1690470;29;21616;-61
2022/02/25 02:29:11;;;;;;;7.45;2.03;;;;;;;;;;1688305;29;21570;-61
2022/02/25 02:30:03;;;;;;;2.97;1.83;;;;;;;;;;1686367;29;21552;-61
2022/02/25 02:30:55;;;;;;;4.03;1.75;;;;;;;;;;1684424;29;21545;-61
2022/02/25 02:31:47;;;;;;;2.65;2.00;;;;;;;;;;1683518;29;21538;-61
2022/02/25 02:32:38;;;;;;;2.08;1.77;;;;;;;;;;1686418;29;21620;-61
2022/02/25 02:33:30;;;;;;;2.03;1.42;;;;;;;;;;1683603;29;21610;-61
2022/02/25 02:34:22;;;;;;;5.35;1.88;;;;;;;;;;1684408;29;21567;-62
2022/02/25 02:35:14;;;;;;;2.05;1.80;;;;;;;;;;1684175;29;21567;-61
2022/02/25 02:36:05;;;;;;;1.90;1.70;;;;;;;;;;1686408;29;21605;-61
2022/02/25 02:36:57;;;;;;;2.22;1.75;;;;;;;;;;1684330;29;21515;-61
2022/02/25 02:37:48;;;;;;;2.00;1.50;;;;;;;;;;1684305;29;21544;-61
2022/02/25 02:38:42;;;;;;;2.72;2.05;;;;;;;;;;1684367;29;21546;-61
2022/02/25 02:39:34;;;;;;;2.40;2.20;;;;;;;;;;1684451;29;21583;-62
2022/02/25 02:40:26;;;;;;;2.13;1.90;;;;;;;;;;1684846;29;21546;-61
2022/02/25 02:41:18;;;;;;;2.17;1.98;;;;;;;;;;1686906;29;21682;-61
2022/02/25 02:42:10;;;;;;;2.30;1.80;;;;;;;;;;1684382;29;21535;-62
2022/02/25 02:43:02;;;;;;;2.50;1.60;;;;;;;;;;1686352;29;21654;-61
2022/02/25 02:43:55;;;;;;;5.75;1.63;;;;;;;;;;1684349;29;21921;-61
2022/02/25 02:44:47;;;;;;;2.10;1.90;;;;;;;;;;1684355;29;21626;-61
2022/02/25 02:45:40;;;;;;;12.02;1.42;;;;;;;;;;1678341;29;21568;-61
2022/02/25 02:46:31;;;;;;;4.80;1.60;;;;;;;;;;1681888;29;21655;-61
2022/02/25 02:47:23;;;;;;;7.15;1.83;;;;;;;;;;1687388;29;21874;-61
2022/02/25 02:48:15;;;;;;;2.72;2.05;;;;;;;;;;1687143;29;21550;-61
2022/02/25 02:49:08;;;;;;;4.75;1.77;;;;;;;;;;1684407;29;21621;-61
2022/02/25 02:50:00;;;;;;;2.33;2.10;;;;;;;;;;1684190;29;22159;-61
2022/02/25 02:50:52;;;;;;;6.05;1.80;;;;;;;;;;1684446;29;21504;-61
2022/02/25 02:51:43;;;;;;;2.00;1.70;;;;;;;;;;1687505;29;21622;-61
2022/02/25 02:52:36;;;;;;;4.40;1.58;;;;;;;;;;1689814;29;21499;-61
2022/02/25 02:53:27;;;;;;;2.08;1.88;;;;;;;;;;1686635;29;21504;-61
2022/02/25 02:54:21;;;;;;;1.90;1.50;;;;;;;;;;1687744;29;21543;-61
2022/02/25 02:55:12;;;;;;;1.90;1.60;;;;;;;;;;1689995;29;21920;-61
2022/02/25 02:56:05;;;;;;;1.60;1.50;;;;;;;;;;1687123;29;21608;-62
2022/02/25 02:56:57;;;;;;;1.77;1.48;;;;;;;;;;1684178;29;21566;-61
2022/02/25 02:57:49;;;;;;;1.90;1.80;;;;;;;;;;1684156;29;21569;-61
2022/02/25 02:58:40;;;;;;;1.80;1.70;;;;;;;;;;1684474;29;21604;-61
2022/02/25 02:59:33;;;;;;;6.45;2.17;;;;;;;;;;1687157;29;21528;-61
2022/02/25 03:00:24;;;;;;;5.90;2.25;;;;;;;;;;1689805;29;21864;-61
2022/02/25 03:01:16;;;;;;;3.03;1.92;;;;;;;;;;1684096;29;21648;-61
2022/02/25 03:02:08;;;;;;;8.00;2.22;;;;;;;;;;1686513;29;22003;-62
2022/02/25 03:03:00;;;;;;;13.75;2.17;;;;;;;;;;1690224;29;21710;-61
2022/02/25 03:03:52;;;;;;;7.20;2.13;;;;;;;;;;1690774;29;21528;-61
2022/02/25 03:04:44;;;;;;;2.03;1.92;;;;;;;;;;1690848;29;21899;-61
2022/02/25 03:05:36;;;;;;;13.38;2.03;;;;;;;;;;1686992;29;22121;-61
2022/02/25 03:06:29;;;;;;;6.00;2.00;;;;;;;;;;1687590;29;21947;-61
2022/02/25 03:07:20;;;;;;;7.65;2.30;;;;;;;;;;1689657;29;21803;-61
2022/02/25 03:08:13;;;;;;;4.20;2.00;;;;;;;;;;1690743;29;21517;-61
2022/02/25 03:09:04;;;;;;;1.92;1.80;;;;;;;;;;1690790;29;21526;-61
2022/02/25 03:09:58;;;;;;;4.82;1.67;;;;;;;;;;1688510;29;21644;-61
2022/02/25 03:10:49;;;;;;;4.47;2.00;;;;;;;;;;1685157;29;21569;-62
2022/02/25 03:11:41;;;;;;;2.05;1.83;;;;;;;;;;1686863;29;21568;-61
2022/02/25 03:12:33;;;;;;;2.03;1.60;;;;;;;;;;1689225;29;21556;-61
2022/02/25 03:13:25;;;;;;;7.70;2.10;;;;;;;;;;1685812;29;21533;-61
2022/02/25 03:14:16;;;;;;;2.50;2.30;;;;;;;;;;1684226;29;21562;-61
2022/02/25 03:15:11;;;;;;;2.47;1.92;;;;;;;;;;1683448;29;21518;-61
2022/02/25 03:16:03;;;;;;;3.13;2.08;;;;;;;;;;1686428;29;21870;-61
2022/02/25 03:16:55;;;;;;;3.13;1.65;;;;;;;;;;1684141;29;21618;-62
2022/02/25 03:17:46;;;;;;;10.48;2.00;;;;;;;;;;1684032;29;21611;-61
2022/02/25 03:18:39;;;;;;;14.88;2.45;;;;;;;;;;1684283;29;22130;-61
2022/02/25 03:19:30;;;;;;;7.82;1.90;;;;;;;;;;1684260;29;21612;-61
2022/02/25 03:20:23;;;;;;;7.72;1.73;;;;;;;;;;1687205;29;21640;-61
2022/02/25 03:21:14;;;;;;;4.07;2.00;;;;;;;;;;1685638;29;21571;-61
2022/02/25 03:22:06;;;;;;;5.53;2.47;;;;;;;;;;1689136;29;21619;-61
2022/02/25 03:22:58;;;;;;;5.45;1.90;;;;;;;;;;1687847;29;22129;-61
2022/02/25 03:23:50;;;;;;;9.15;2.00;;;;;;;;;;1687346;29;21555;-61
2022/02/25 03:24:41;;;;;;;2.78;1.92;;;;;;;;;;1689749;29;21626;-61
2022/02/25 03:25:35;;;;;;;2.70;2.17;;;;;;;;;;1690732;29;22024;-61
2022/02/25 03:26:27;;;;;;;2.55;2.00;;;;;;;;;;1690785;29;22064;-61
2022/02/25 03:27:19;;;;;;;8.88;1.92;;;;;;;;;;1686875;29;21524;-62
2022/02/25 03:28:10;;;;;;;10.85;2.28;;;;;;;;;;1687184;29;21586;-61
2022/02/25 03:29:03;;;;;;;8.35;2.92;;;;;;;;;;1689690;29;22080;-61
2022/02/25 03:29:54;;;;;;;6.85;1.98;;;;;;;;;;1690843;29;21539;-61
2022/02/25 03:30:47;;;;;;;4.47;2.40;;;;;;;;;;1687670;29;21605;-61
2022/02/25 03:31:38;;;;;;;2.20;2.00;;;;;;;;;;1685712;29;21568;-62
2022/02/25 03:32:30;;;;;;;2.80;1.83;;;;;;;;;;1689281;29;21583;-61
2022/02/25 03:33:21;;;;;;;7.82;2.00;;;;;;;;;;1689656;29;21561;-62
2022/02/25 03:34:13;;;;;;;14.95;3.75;;;;;;;;;;1690732;29;21544;-62
2022/02/25 03:35:06;;;;;;;4.60;2.63;;;;;;;;;;1690566;29;21549;-62
2022/02/25 03:35:58;;;;;;;3.17;1.85;;;;;;;;;;1685365;29;22117;-62
2022/02/25 03:36:49;;;;;;;8.73;1.90;;;;;;;;;;1689217;29;21542;-61
2022/02/25 03:37:42;;;;;;;4.13;2.13;;;;;;;;;;1689627;29;22209;-62
2022/02/25 03:38:34;;;;;;;6.63;2.15;;;;;;;;;;1685381;29;21541;-61
2022/02/25 03:39:26;;;;;;;10.40;2.35;;;;;;;;;;1688574;29;22212;-61
2022/02/25 03:40:18;;;;;;;12.40;2.60;;;;;;;;;;1689696;29;21591;-62
2022/02/25 03:41:11;;;;;;;26.85;2.55;;;;;;;;;;1686525;29;21591;-61
2022/02/25 03:42:04;;;;;;;11.65;2.40;;;;;;;;;;1684098;29;21789;-62
2022/02/25 03:42:56;;;;;;;13.90;2.10;;;;;;;;;;1683949;29;21655;-61
2022/02/25 03:43:48;;;;;;;10.40;2.85;;;;;;;;;;1684175;29;21588;-61
2022/02/25 03:44:40;;;;;;;22.88;2.72;;;;;;;;;;1683982;29;21620;-62
2022/02/25 03:45:31;;;;;;;12.90;2.30;;;;;;;;;;1684018;29;21653;-61
2022/02/25 03:46:24;;;;;;;10.90;2.40;;;;;;;;;;1684158;29;21706;-61
2022/02/25 03:47:15;;;;;;;14.75;2.78;;;;;;;;;;1686578;29;21606;-61
2022/02/25 03:48:07;;;;;;;6.22;2.17;;;;;;;;;;1689685;29;21967;-62
2022/02/25 03:48:59;;;;;;;14.50;2.20;;;;;;;;;;1677624;29;21562;-61
2022/02/25 03:49:51;;;;;;;7.90;1.92;;;;;;;;;;1675816;29;21699;-61
2022/02/25 03:50:42;;;;;;;29.52;2.75;;;;;;;;;;1674992;29;21524;-62
2022/02/25 03:51:35;;;;;;;9.57;2.08;;;;;;;;;;1682890;29;21573;-61
2022/02/25 03:52:26;;;;;;;26.77;3.92;;;;;;;;;;1690553;29;21563;-61
2022/02/25 03:53:18;;;;;;;14.05;2.83;;;;;;;;;;1689679;29;21643;-61
2022/02/25 03:54:10;;;;;;;16.52;2.78;;;;;;;;;;1687174;29;21611;-61
2022/02/25 03:55:02;;;;;;;8.30;2.38;;;;;;;;;;1686654;29;21551;-61
2022/02/25 03:55:55;;;;;;;19.05;2.40;;;;;;;;;;1689574;29;21597;-61
2022/02/25 03:56:49;;;;;;;6.28;2.70;;;;;;;;;;1690600;29;22258;-61
2022/02/25 03:57:41;;;;;;;9.40;2.47;;;;;;;;;;1686458;29;21577;-62
2022/02/25 03:58:33;;;;;;;6.75;2.50;;;;;;;;;;1683175;29;21568;-61
2022/02/25 03:59:24;;;;;;;5.43;2.50;;;;;;;;;;1683813;29;21575;-61
2022/02/25 04:00:17;;;;;;;26.15;3.47;;;;;;;;;;1684059;29;21604;-62
2022/02/25 04:01:09;;;;;;;11.23;2.53;;;;;;;;;;1685011;29;22012;-61
2022/02/25 04:02:01;;;;;;;12.98;2.63;;;;;;;;;;1688274;29;21486;-62
2022/02/25 04:02:52;;;;;;;10.57;2.50;;;;;;;;;;1689487;29;21607;-61
2022/02/25 04:03:45;;;;;;;12.73;2.35;;;;;;;;;;1686315;29;21517;-61
2022/02/25 04:04:36;;;;;;;7.75;2.45;;;;;;;;;;1687351;29;22237;-61
2022/02/25 04:05:29;;;;;;;5.15;2.53;;;;;;;;;;1689532;29;21508;-61
2022/02/25 04:06:20;;;;;;;28.73;4.13;;;;;;;;;;1688895;29;21563;-62
2022/02/25 04:07:13;;;;;;;13.43;2.67;;;;;;;;;;1686025;29;21829;-61
2022/02/25 04:08:06;;;;;;;20.33;2.80;;;;;;;;;;1683874;29;21928;-61
2022/02/25 04:08:57;;;;;;;9.30;2.72;;;;;;;;;;1683967;29;21565;-61
2022/02/25 04:09:50;;;;;;;8.57;2.13;;;;;;;;;;1684105;29;21812;-61
2022/02/25 04:10:41;;;;;;;10.65;2.15;;;;;;;;;;1683597;29;22014;-61
2022/02/25 04:11:33;;;;;;;5.75;2.35;;;;;;;;;;1685410;29;21539;-61
2022/02/25 04:12:26;;;;;;;7.60;2.03;;;;;;;;;;1690536;29;21560;-62
2022/02/25 04:13:19;;;;;;;5.50;2.55;;;;;;;;;;1689284;29;21517;-61
2022/02/25 04:14:10;;;;;;;2.65;2.13;;;;;;;;;;1690493;29;21486;-61
2022/02/25 04:15:05;;;;;;;2.75;2.22;;;;;;;;;;1687256;29;22301;-62
2022/02/25 04:15:56;;;;;;;8.75;2.55;;;;;;;;;;1686801;29;21624;-62
2022/02/25 04:16:49;;;;;;;9.63;2.67;;;;;;;;;;1689448;29;21659;-62
2022/02/25 04:17:40;;;;;;;4.75;2.40;;;;;;;;;;1690413;29;21521;-61
2022/02/25 04:18:33;;;;;;;3.08;2.20;;;;;;;;;;1688533;29;22040;-61
2022/02/25 04:19:25;;;;;;;5.53;3.33;;;;;;;;;;1683693;29;22023;-61
2022/02/25 04:20:17;;;;;;;4.00;2.95;;;;;;;;;;1690548;29;21505;-61
2022/02/25 04:21:08;;;;;;;4.32;2.30;;;;;;;;;;1675954;29;21574;-61
2022/02/25 04:22:01;;;;;;;3.95;2.42;;;;;;;;;;1681160;29;22154;-62
2022/02/25 04:22:52;;;;;;;21.25;2.95;;;;;;;;;;1683644;29;21574;-61
2022/02/25 04:23:44;;;;;;;8.10;2.60;;;;;;;;;;1687251;29;22042;-61
2022/02/25 04:24:36;;;;;;;11.02;2.47;;;;;;;;;;1689604;29;21976;-61
2022/02/25 04:25:28;;;;;;;3.92;2.30;;;;;;;;;;1682523;29;21645;-62
2022/02/25 04:26:20;;;;;;;5.75;2.47;;;;;;;;;;1680278;29;21519;-61
2022/02/25 04:27:12;;;;;;;11.20;2.90;;;;;;;;;;1683590;29;21661;-61
2022/02/25 04:28:05;;;;;;;3.17;2.50;;;;;;;;;;1683959;29;21530;-61
2022/02/25 04:28:57;;;;;;;4.55;2.47;;;;;;;;;;1676148;29;21531;-61
2022/02/25 04:29:49;;;;;;;5.20;2.53;;;;;;;;;;1683406;29;21557;-61
2022/02/25 04:30:42;;;;;;;2.53;2.25;;;;;;;;;;1684478;29;21549;-62
2022/02/25 04:31:33;;;;;;;7.03;2.67;;;;;;;;;;1683322;29;21935;-62
2022/02/25 04:32:26;;;;;;;4.15;2.40;;;;;;;;;;1686295;29;21680;-62
2022/02/25 04:33:17;;;;;;;4.53;2.58;;;;;;;;;;1682701;29;21570;-61
2022/02/25 04:34:09;;;;;;;3.08;2.33;;;;;;;;;;1683809;29;21525;-61
2022/02/25 04:35:03;;;;;;;8.52;2.40;;;;;;;;;;1683900;29;21554;-61
2022/02/25 04:35:55;;;;;;;8.43;2.78;;;;;;;;;;1684777;29;21633;-61
2022/02/25 04:36:47;;;;;;;15.95;2.58;;;;;;;;;;1688624;29;21529;-61
2022/02/25 04:37:40;;;;;;;6.85;2.90;;;;;;;;;;1689154;29;21505;-61
2022/02/25 04:38:32;;;;;;;6.72;2.70;;;;;;;;;;1685527;29;21643;-61
2022/02/25 04:39:24;;;;;;;11.43;2.85;;;;;;;;;;1688189;29;21568;-62
2022/02/25 04:40:17;;;;;;;6.00;2.55;;;;;;;;;;1689383;29;21621;-61
2022/02/25 04:41:08;;;;;;;5.25;2.65;;;;;;;;;;1686295;29;21542;-61
2022/02/25 04:42:00;;;;;;;8.77;3.08;;;;;;;;;;1683858;29;21565;-61
2022/02/25 04:42:51;;;;;;;4.97;2.22;;;;;;;;;;1683714;29;21644;-61
2022/02/25 04:43:45;;;;;;;2.83;2.60;;;;;;;;;;1685907;29;21608;-61
2022/02/25 04:44:36;;;;;;;9.02;2.40;;;;;;;;;;1684320;29;21538;-61
2022/02/25 04:45:30;;;;;;;3.03;2.40;;;;;;;;;;1689375;29;21680;-61
2022/02/25 04:46:26;;;;;;;3.80;2.50;;;;;;;;;;1687838;29;22143;-61
2022/02/25 04:47:18;;;;;;;2.50;2.30;;;;;;;;;;1684479;29;21880;-61
2022/02/25 04:48:10;;;;;;;2.78;2.35;;;;;;;;;;1689376;29;21519;-62
2022/02/25 04:49:02;;;;;;;3.47;2.60;;;;;;;;;;1690475;29;21512;-61
2022/02/25 04:49:53;;;;;;;5.00;2.70;;;;;;;;;;1690436;29;21564;-62
2022/02/25 04:50:45;;;;;;;2.85;2.60;;;;;;;;;;1686511;29;21673;-62
2022/02/25 04:51:37;;;;;;;2.42;2.00;;;;;;;;;;1683785;29;21742;-61
2022/02/25 04:52:29;;;;;;;2.70;2.50;;;;;;;;;;1683597;29;21571;-62
2022/02/25 04:53:20;;;;;;;5.60;2.30;;;;;;;;;;1677478;29;22202;-61
2022/02/25 04:54:12;;;;;;;2.88;2.53;;;;;;;;;;1678919;29;21859;-61
2022/02/25 04:55:06;;;;;;;5.63;2.38;;;;;;;;;;1687055;29;21566;-61
2022/02/25 04:55:58;;;;;;;7.60;3.10;;;;;;;;;;1677510;29;21502;-61
2022/02/25 04:56:49;;;;;;;9.52;3.00;;;;;;;;;;1684563;29;21561;-61
2022/02/25 04:57:42;;;;;;;11.38;2.80;;;;;;;;;;1690757;29;21921;-62
2022/02/25 04:58:33;;;;;;;4.35;3.15;;;;;;;;;;1682772;29;21546;-62
2022/02/25 04:59:27;;;;;;;13.38;2.50;;;;;;;;;;1680279;29;21543;-61
2022/02/25 05:00:19;;;;;;;4.20;2.50;;;;;;;;;;1688347;29;22024;-61
2022/02/25 05:01:11;;;;;;;5.63;2.40;;;;;;;;;;1686400;29;21546;-61
2022/02/25 05:02:03;;;;;;;2.97;2.55;;;;;;;;;;1687420;29;21562;-61
2022/02/25 05:02:55;;;;;;;4.38;3.08;;;;;;;;;;1683997;29;21731;-61
2022/02/25 05:03:46;;;;;;;3.83;2.28;;;;;;;;;;1691360;29;21700;-61
2022/02/25 05:04:38;;;;;;;8.70;2.83;;;;;;;;;;1690420;29;22034;-61
2022/02/25 05:05:30;;;;;;;11.98;2.95;;;;;;;;;;1689346;29;21784;-61
2022/02/25 05:06:22;;;;;;;9.18;3.00;;;;;;;;;;1677059;29;21548;-61
2022/02/25 05:07:13;;;;;;;9.60;2.80;;;;;;;;;;1683675;29;21983;-61
2022/02/25 05:08:06;;;;;;;7.03;3.35;;;;;;;;;;1685927;29;22170;-61
2022/02/25 05:08:58;;;;;;;5.63;2.78;;;;;;;;;;1686901;29;21538;-61
2022/02/25 05:09:50;;;;;;;17.45;3.25;;;;;;;;;;1691142;29;21538;-61
2022/02/25 05:10:41;;;;;;;6.88;3.00;;;;;;;;;;1688210;29;21942;-62
2022/02/25 05:11:33;;;;;;;6.57;3.63;;;;;;;;;;1686625;29;22134;-62